createdAt,value
2023-01-27T00:00:51.775Z,96823.03
2023-01-27T00:03:20.070Z,96812.44
2023-01-27T00:05:47.753Z,96814.66
2023-01-27T00:08:18.106Z,96819.69
2023-01-27T00:10:45.683Z,96817.13
2023-01-27T00:13:28.565Z,96814.47
2023-01-27T00:15:57.420Z,96823.78
2023-01-27T00:18:25.744Z,96817.13
2023-01-27T00:21:11.069Z,96813.84
2023-01-27T00:23:56.390Z,96816.88
2023-01-27T00:26:24.355Z,96809.63
2023-01-27T00:28:51.854Z,96808.00
2023-01-27T00:31:38.485Z,96825.84
2023-01-27T00:34:10.088Z,96813.22
2023-01-27T00:36:39.342Z,96818.50
2023-01-27T00:39:08.128Z,96821.97
2023-01-27T00:41:36.091Z,96813.00
2023-01-27T00:44:05.502Z,96819.97
2023-01-27T00:46:34.814Z,96816.00
2023-01-27T00:49:02.548Z,96821.94
2023-01-27T00:51:30.012Z,96809.72
2023-01-27T00:53:59.199Z,96817.28
2023-01-27T00:56:28.148Z,96817.06
2023-01-27T00:58:55.767Z,96821.97
2023-01-27T01:01:23.324Z,96816.03
2023-01-27T01:03:52.301Z,96822.22
2023-01-27T01:06:20.685Z,96823.03
2023-01-27T01:08:48.513Z,96821.25
2023-01-27T01:11:17.535Z,96821.16
2023-01-27T01:13:45.847Z,96823.16
2023-01-27T01:16:16.970Z,96819.44
2023-01-27T01:18:44.886Z,96817.47
2023-01-27T01:21:14.970Z,96819.22
2023-01-27T01:23:44.525Z,96821.78
2023-01-27T01:26:13.221Z,96829.50
2023-01-27T01:28:40.814Z,96820.38
2023-01-27T01:31:10.019Z,96814.31
2023-01-27T01:33:38.254Z,96815.97
2023-01-27T01:36:07.252Z,96821.28
2023-01-27T01:38:36.282Z,96824.00
2023-01-27T01:41:04.033Z,96826.66
2023-01-27T01:43:31.582Z,96819.66
2023-01-27T01:45:59.579Z,96813.50
2023-01-27T01:48:33.369Z,96814.91
2023-01-27T01:51:05.845Z,96815.81
2023-01-27T01:53:39.433Z,96807.31
2023-01-27T01:56:13.110Z,96800.44
2023-01-27T02:01:16.113Z,96797.03
2023-01-27T02:03:48.033Z,96804.03
2023-01-27T02:06:15.719Z,96808.34
2023-01-27T02:08:47.161Z,96819.44
2023-01-27T02:11:14.794Z,96810.22
2023-01-27T02:13:44.115Z,96811.50
2023-01-27T02:16:12.452Z,96808.44
2023-01-27T02:18:42.081Z,96801.69
2023-01-27T02:21:10.416Z,96795.72
2023-01-27T02:23:49.160Z,96797.47
2023-01-27T02:26:21.125Z,96795.50
2023-01-27T02:28:55.078Z,96789.31
2023-01-27T02:31:22.994Z,96795.16
2023-01-27T02:33:50.890Z,96790.50
2023-01-27T02:36:19.202Z,96792.63
2023-01-27T02:38:48.806Z,96792.28
2023-01-27T02:41:22.307Z,96793.31
2023-01-27T02:43:50.393Z,96792.97
2023-01-27T02:46:18.097Z,96795.78
2023-01-27T02:48:45.727Z,96799.84
2023-01-27T02:51:13.467Z,96793.78
2023-01-27T02:53:41.095Z,96789.59
2023-01-27T02:56:08.895Z,96794.94
2023-01-27T02:58:37.788Z,96792.59
2023-01-27T03:01:05.746Z,96785.84
2023-01-27T03:03:33.257Z,96799.59
2023-01-27T03:06:00.857Z,96790.47
2023-01-27T03:08:28.489Z,96801.69
2023-01-27T03:10:56.615Z,96793.50
2023-01-27T03:13:25.101Z,96798.84
2023-01-27T03:16:13.535Z,96809.56
2023-01-27T03:18:47.401Z,96797.06
2023-01-27T03:21:15.520Z,96803.94
2023-01-27T03:23:45.651Z,96808.38
2023-01-27T03:26:13.641Z,96807.66
2023-01-27T03:28:41.156Z,96800.78
2023-01-27T03:31:19.432Z,96804.28
2023-01-27T03:33:47.603Z,96805.31
2023-01-27T03:36:32.731Z,96812.50
2023-01-27T03:39:18.182Z,96793.16
2023-01-27T03:42:03.558Z,96787.31
2023-01-27T03:44:48.791Z,96786.41
2023-01-27T03:47:17.635Z,96802.81
2023-01-27T03:49:45.107Z,96803.84
2023-01-27T03:52:12.577Z,96801.28
2023-01-27T03:54:40.048Z,96798.72
2023-01-27T03:57:07.513Z,96795.94
2023-01-27T03:59:35.076Z,96806.19
2023-01-27T04:02:20.999Z,96811.31
2023-01-27T04:05:07.606Z,96799.41
2023-01-27T04:07:35.790Z,96795.13
2023-01-27T04:10:03.361Z,96797.91
2023-01-27T04:12:29.878Z,96800.59
2023-01-27T04:14:57.844Z,96809.09
2023-01-27T04:17:25.333Z,96807.34
2023-01-27T04:19:54.187Z,96818.53
2023-01-27T04:22:21.722Z,96824.56
2023-01-27T04:24:50.113Z,96816.16
2023-01-27T04:27:18.866Z,96822.09
2023-01-27T04:29:46.323Z,96819.53
2023-01-27T04:32:15.179Z,96818.84
2023-01-27T04:34:43.143Z,96825.72
2023-01-27T04:37:12.105Z,96825.72
2023-01-27T04:39:39.601Z,96829.00
2023-01-27T04:42:07.169Z,96818.72
2023-01-27T04:44:34.659Z,96823.88
2023-01-27T04:47:02.198Z,96825.63
2023-01-27T04:49:29.734Z,96819.78
2023-01-27T04:51:57.280Z,96819.88
2023-01-27T04:54:26.111Z,96827.78
2023-01-27T04:56:57.372Z,96816.13
2023-01-27T04:59:24.956Z,96832.63
2023-01-27T05:01:52.999Z,96839.59
2023-01-27T05:04:20.535Z,96837.03
2023-01-27T05:06:48.060Z,96840.31
2023-01-27T05:09:15.663Z,96829.88
2023-01-27T05:11:44.507Z,96824.75
2023-01-27T05:14:13.866Z,96832.44
2023-01-27T05:16:41.442Z,96834.88
2023-01-27T05:19:09.710Z,96831.50
2023-01-27T05:21:37.364Z,96826.38
2023-01-27T05:24:05.403Z,96834.28
2023-01-27T05:26:32.921Z,96829.97
2023-01-27T05:29:01.768Z,96831.72
2023-01-27T05:31:31.502Z,96818.78
2023-01-27T05:34:00.750Z,96823.91
2023-01-27T05:36:28.804Z,96827.19
2023-01-27T05:38:57.098Z,96835.81
2023-01-27T05:41:24.643Z,96828.00
2023-01-27T05:43:53.834Z,96828.00
2023-01-27T05:46:24.702Z,96846.44
2023-01-27T05:48:54.089Z,96847.75
2023-01-27T05:51:23.683Z,96842.19
2023-01-27T05:53:51.619Z,96842.09
2023-01-27T05:56:20.023Z,96852.13
2023-01-27T05:58:47.988Z,96854.69
2023-01-27T06:01:16.954Z,96854.09
2023-01-27T06:03:47.135Z,96848.97
2023-01-27T06:06:17.113Z,96853.25
2023-01-27T06:08:45.556Z,96864.03
2023-01-27T06:11:13.350Z,96861.31
2023-01-27T06:13:41.227Z,96865.16
2023-01-27T06:16:11.217Z,96856.28
2023-01-27T06:18:39.936Z,96857.41
2023-01-27T06:21:10.987Z,96854.34
2023-01-27T06:23:39.280Z,96851.78
2023-01-27T06:26:10.473Z,96833.13
2023-01-27T06:28:38.037Z,96847.69
2023-01-27T06:31:07.532Z,96866.44
2023-01-27T06:33:35.085Z,96870.44
2023-01-27T06:36:03.596Z,96873.69
2023-01-27T06:38:32.499Z,96886.31
2023-01-27T06:41:01.127Z,96894.00
2023-01-27T06:43:28.920Z,96896.44
2023-01-27T06:45:57.510Z,96888.66
2023-01-27T06:48:25.470Z,96890.31
2023-01-27T06:50:53.989Z,96896.25
2023-01-27T06:53:21.839Z,96903.31
2023-01-27T06:55:56.370Z,96900.06
2023-01-27T06:58:23.928Z,96903.13
2023-01-27T07:00:51.971Z,96904.25
2023-01-27T07:03:19.687Z,96899.38
2023-01-27T07:05:47.247Z,96904.69
2023-01-27T07:08:14.773Z,96912.75
2023-01-27T07:10:42.383Z,96913.34
2023-01-27T07:13:13.494Z,96912.91
2023-01-27T07:15:41.690Z,96904.50
2023-01-27T07:18:09.310Z,96908.22
2023-01-27T07:20:36.841Z,96916.13
2023-01-27T07:23:06.155Z,96920.56
2023-01-27T07:25:35.464Z,96918.22
2023-01-27T07:28:03.988Z,96917.69
2023-01-27T07:30:34.296Z,96916.88
2023-01-27T07:33:05.433Z,96912.56
2023-01-27T07:35:32.953Z,96924.59
2023-01-27T07:38:00.565Z,96923.78
2023-01-27T07:40:28.055Z,96931.38
2023-01-27T07:42:59.137Z,96945.09
2023-01-27T07:45:26.792Z,96946.22
2023-01-27T07:48:01.144Z,96945.66
2023-01-27T07:50:28.798Z,96950.78
2023-01-27T07:52:59.663Z,96954.97
2023-01-27T07:55:27.225Z,96954.88
2023-01-27T07:57:55.231Z,96949.84
2023-01-27T08:00:23.221Z,96961.22
2023-01-27T08:02:51.576Z,96955.38
2023-01-27T08:05:22.487Z,96960.41
2023-01-27T08:07:50.529Z,96958.75
2023-01-27T08:10:18.822Z,96964.03
2023-01-27T08:12:47.016Z,96961.44
2023-01-27T08:15:16.576Z,96964.94
2023-01-27T08:17:45.862Z,96963.88
2023-01-27T08:20:14.182Z,96959.47
2023-01-27T08:22:43.656Z,96946.78
2023-01-27T08:25:11.202Z,96942.47
2023-01-27T08:27:38.807Z,96939.91
2023-01-27T08:30:07.269Z,96944.22
2023-01-27T08:32:35.272Z,96947.69
2023-01-27T08:35:03.000Z,96942.78
2023-01-27T08:37:30.494Z,96950.59
2023-01-27T08:39:59.389Z,96955.09
2023-01-27T08:42:27.054Z,96960.34
2023-01-27T08:44:54.638Z,96961.16
2023-01-27T08:47:22.248Z,96949.06
2023-01-27T08:49:49.806Z,96948.13
2023-01-27T08:52:17.323Z,96953.38
2023-01-27T08:54:44.817Z,96949.16
2023-01-27T08:57:13.756Z,96953.47
2023-01-27T08:59:41.314Z,96956.13
2023-01-27T09:02:10.911Z,96956.25
2023-01-27T09:04:41.947Z,96952.97
2023-01-27T09:07:09.497Z,96964.66
2023-01-27T09:09:37.038Z,96963.50
2023-01-27T09:12:04.779Z,96965.88
2023-01-27T09:14:33.683Z,96965.78
2023-01-27T09:17:01.191Z,96959.81
2023-01-27T09:19:28.747Z,96962.97
2023-01-27T09:21:56.375Z,96959.38
2023-01-27T09:24:24.145Z,96958.56
2023-01-27T09:26:51.738Z,96960.19
2023-01-27T09:29:19.349Z,96965.13
2023-01-27T09:31:48.351Z,96961.63
2023-01-27T09:34:17.720Z,96963.16
2023-01-27T09:36:50.509Z,96968.19
2023-01-27T09:39:18.720Z,96965.53
2023-01-27T09:42:08.540Z,96969.22
2023-01-27T09:45:00.558Z,96963.16
2023-01-27T09:47:51.972Z,96958.97
2023-01-27T09:50:38.180Z,96969.00
2023-01-27T09:53:26.623Z,96972.06
2023-01-27T09:55:59.428Z,96977.06
2023-01-27T09:58:33.381Z,96977.59
2023-01-27T10:01:12.134Z,96980.47
2023-01-27T10:04:19.406Z,96983.97
2023-01-27T10:06:57.327Z,96978.84
2023-01-27T10:09:57.617Z,96992.59
2023-01-27T10:12:35.696Z,96994.31
2023-01-27T10:15:17.821Z,96995.03
2023-01-27T10:17:52.468Z,97000.78
2023-01-27T10:20:30.471Z,96997.28
2023-01-27T10:23:10.207Z,97008.47
2023-01-27T10:25:53.060Z,97011.25
2023-01-27T10:28:24.281Z,97013.13
2023-01-27T10:30:59.871Z,97015.88
2023-01-27T10:33:39.371Z,97007.47
2023-01-27T10:36:17.744Z,97006.75
2023-01-27T10:38:50.366Z,96998.03
2023-01-27T10:41:29.788Z,96996.06
2023-01-27T10:44:15.301Z,97002.63
2023-01-27T10:46:53.837Z,96994.72
2023-01-27T10:49:25.864Z,96992.75
2023-01-27T10:51:59.274Z,97001.06
2023-01-27T10:54:33.921Z,96996.84
2023-01-27T10:57:07.223Z,97008.78
2023-01-27T10:59:41.111Z,97007.13
2023-01-27T11:02:18.712Z,97007.34
2023-01-27T11:04:49.513Z,97010.81
2023-01-27T11:07:20.537Z,97005.69
2023-01-27T11:09:54.460Z,97001.16
2023-01-27T11:12:30.321Z,96998.28
2023-01-27T11:14:59.495Z,96992.00
2023-01-27T11:17:31.933Z,96990.78
2023-01-27T11:20:06.134Z,96990.44
2023-01-27T11:22:40.949Z,96990.44
2023-01-27T11:25:24.264Z,96977.28
2023-01-27T11:28:13.768Z,96976.97
2023-01-27T11:30:49.478Z,96972.31
2023-01-27T11:33:22.593Z,96973.63
2023-01-27T11:35:51.243Z,96978.41
2023-01-27T11:38:23.358Z,96975.63
2023-01-27T11:40:52.820Z,96976.56
2023-01-27T11:43:24.749Z,96974.91
2023-01-27T11:45:56.387Z,96979.38
2023-01-27T11:48:23.975Z,96977.72
2023-01-27T11:50:51.676Z,96972.47
2023-01-27T11:53:27.646Z,96974.81
2023-01-27T11:55:58.267Z,96972.84
2023-01-27T11:58:28.471Z,96971.34
2023-01-27T12:00:58.263Z,96977.47
2023-01-27T12:03:40.414Z,96983.31
2023-01-27T12:06:15.805Z,96977.88
2023-01-27T12:08:46.201Z,96978.81
2023-01-27T12:11:19.644Z,96983.13
2023-01-27T12:13:52.346Z,96978.19
2023-01-27T12:16:20.594Z,96976.56
2023-01-27T12:18:53.830Z,96968.97
2023-01-27T12:21:24.293Z,96959.84
2023-01-27T12:23:56.691Z,96962.53
2023-01-27T12:26:35.361Z,96958.94
2023-01-27T12:29:07.131Z,96953.69
2023-01-27T12:31:45.578Z,96956.25
2023-01-27T12:34:27.382Z,96939.81
2023-01-27T12:36:56.268Z,96934.44
2023-01-27T12:39:42.971Z,96933.53
2023-01-27T12:42:36.571Z,96922.91
2023-01-27T12:45:26.492Z,96925.50
2023-01-27T12:48:15.913Z,96918.94
2023-01-27T12:50:54.233Z,96930.34
2023-01-27T12:53:25.506Z,96921.25
2023-01-27T12:55:59.838Z,96923.00
2023-01-27T12:58:36.833Z,96917.06
2023-01-27T13:01:07.159Z,96920.44
2023-01-27T13:03:41.119Z,96918.66
2023-01-27T13:06:09.542Z,96908.16
2023-01-27T13:08:41.365Z,96921.50
2023-01-27T13:11:11.176Z,96927.13
2023-01-27T13:13:47.974Z,96923.41
2023-01-27T13:16:19.090Z,96931.09
2023-01-27T13:18:54.637Z,96933.78
2023-01-27T13:21:26.519Z,96942.06
2023-01-27T13:23:56.524Z,96947.69
2023-01-27T13:26:29.090Z,96948.38
2023-01-27T13:29:00.734Z,96949.22
2023-01-27T13:31:44.182Z,96952.38
2023-01-27T13:34:23.310Z,96951.66
2023-01-27T13:36:56.425Z,96947.69
2023-01-27T13:39:44.308Z,96957.25
2023-01-27T13:42:20.421Z,96952.81
2023-01-27T13:44:56.005Z,96969.19
2023-01-27T13:47:26.936Z,96964.94
2023-01-27T13:49:59.737Z,96971.94
2023-01-27T13:52:27.226Z,96970.09
2023-01-27T13:54:55.005Z,96963.53
2023-01-27T13:57:45.911Z,96966.78
2023-01-27T14:00:21.569Z,96967.91
2023-01-27T14:03:14.409Z,96965.59
2023-01-27T14:05:55.514Z,96956.03
2023-01-27T14:08:46.780Z,96957.66
2023-01-27T14:11:23.819Z,96972.84
2023-01-27T14:14:15.226Z,96976.13
2023-01-27T14:16:57.386Z,96972.63
2023-01-27T14:19:37.371Z,96974.47
2023-01-27T14:22:12.862Z,96978.69
2023-01-27T14:24:46.732Z,96986.97
2023-01-27T14:27:19.132Z,96989.22
2023-01-27T14:29:54.712Z,96992.63
2023-01-27T14:32:30.553Z,96991.09
2023-01-27T14:35:15.491Z,96989.53
2023-01-27T14:37:52.549Z,96986.88
2023-01-27T14:40:24.010Z,96984.06
2023-01-27T14:43:11.636Z,96989.91
2023-01-27T14:45:45.805Z,96983.63
2023-01-27T14:48:24.207Z,96990.44
2023-01-27T14:51:00.494Z,96987.72
2023-01-27T14:53:46.151Z,96995.31
2023-01-27T14:56:21.540Z,96989.28
2023-01-27T14:58:56.669Z,96985.06
2023-01-27T15:01:34.692Z,96986.91
2023-01-27T15:04:26.551Z,96991.34
2023-01-27T15:06:57.568Z,96989.09
2023-01-27T15:09:41.733Z,96985.25
2023-01-27T15:12:29.946Z,96985.47
2023-01-27T15:15:26.723Z,96981.47
2023-01-27T15:18:12.315Z,96985.78
2023-01-27T15:20:56.753Z,96978.19
2023-01-27T15:23:53.851Z,96991.88
2023-01-27T15:26:25.811Z,96993.72
2023-01-27T15:28:54.502Z,96994.78
2023-01-27T15:31:26.371Z,96998.59
2023-01-27T15:34:16.895Z,96996.94
2023-01-27T15:37:03.186Z,96996.13
2023-01-27T15:39:40.854Z,97006.38
2023-01-27T15:42:12.255Z,97011.50
2023-01-27T15:44:42.624Z,97007.19
2023-01-27T15:47:13.682Z,97019.81
2023-01-27T15:49:46.628Z,97016.56
2023-01-27T15:52:26.555Z,97026.34
2023-01-27T15:54:56.133Z,97026.44
2023-01-27T15:57:28.643Z,97029.81
2023-01-27T16:00:02.077Z,97031.47
2023-01-27T16:02:31.911Z,97032.19
2023-01-27T16:05:09.193Z,97028.78
2023-01-27T16:07:39.564Z,97033.47
2023-01-27T16:10:14.223Z,97035.72
2023-01-27T16:12:44.997Z,97037.47
2023-01-27T16:15:23.970Z,97036.97
2023-01-27T16:18:01.113Z,97039.03
2023-01-27T16:20:32.487Z,97039.25
2023-01-27T16:23:03.982Z,97042.75
2023-01-27T16:25:40.741Z,97046.25
2023-01-27T16:28:15.745Z,97053.22
2023-01-27T16:30:49.763Z,97052.53
2023-01-27T16:33:23.292Z,97058.59
2023-01-27T16:35:55.020Z,97053.34
2023-01-27T16:38:27.403Z,97054.19
2023-01-27T16:40:58.088Z,97055.81
2023-01-27T16:43:31.567Z,97058.59
2023-01-27T16:46:01.671Z,97067.19
2023-01-27T16:48:35.128Z,97063.00
2023-01-27T16:51:19.427Z,97073.28
2023-01-27T16:53:49.410Z,97060.63
2023-01-27T16:56:21.728Z,97070.91
2023-01-27T16:58:51.061Z,97069.28
2023-01-27T17:01:26.680Z,97071.75
2023-01-27T17:04:00.617Z,97072.34
2023-01-27T17:06:32.631Z,97073.16
2023-01-27T17:09:01.044Z,97081.69
2023-01-27T17:11:32.766Z,97074.00
2023-01-27T17:14:02.356Z,97069.44
2023-01-27T17:16:34.545Z,97070.06
2023-01-27T17:19:11.732Z,97068.94
2023-01-27T17:21:43.328Z,97064.50
2023-01-27T17:24:20.260Z,97075.69
2023-01-27T17:26:53.981Z,97077.66
2023-01-27T17:29:23.650Z,97071.69
2023-01-27T17:31:52.128Z,97068.41
2023-01-27T17:34:21.818Z,97066.88
2023-01-27T17:37:15.891Z,97067.19
2023-01-27T17:39:44.608Z,97069.88
2023-01-27T17:42:15.588Z,97069.88
2023-01-27T17:44:43.160Z,97083.41
2023-01-27T17:47:14.672Z,97075.63
2023-01-27T17:49:43.760Z,97084.03
2023-01-27T17:52:16.746Z,97084.75
2023-01-27T17:54:46.884Z,97082.19
2023-01-27T17:57:21.447Z,97089.16
2023-01-27T17:59:59.109Z,97089.88
2023-01-27T18:02:29.931Z,97095.72
2023-01-27T18:05:00.428Z,97088.75
2023-01-27T18:07:28.628Z,97086.09
2023-01-27T18:09:58.013Z,97089.47
2023-01-27T18:12:33.947Z,97092.03
2023-01-27T18:15:42.124Z,97089.94
2023-01-27T18:18:23.694Z,97097.13
2023-01-27T18:21:03.004Z,97099.16
2023-01-27T18:23:34.104Z,97098.81
2023-01-27T18:26:18.087Z,97105.72
2023-01-27T18:28:46.975Z,97098.63
2023-01-27T18:31:21.371Z,97103.44
2023-01-27T18:33:57.666Z,97109.75
2023-01-27T18:36:33.271Z,97106.84
2023-01-27T18:39:00.948Z,97110.94
2023-01-27T18:41:32.574Z,97110.94
2023-01-27T18:44:01.523Z,97108.19
2023-01-27T18:46:29.343Z,97105.47
2023-01-27T18:48:59.573Z,97102.91
2023-01-27T18:51:27.159Z,97109.09
2023-01-27T18:53:54.697Z,97103.97
2023-01-27T18:56:22.247Z,97102.91
2023-01-27T18:58:54.020Z,97100.25
2023-01-27T19:01:23.955Z,97104.34
2023-01-27T19:03:52.286Z,97092.34
2023-01-27T19:06:19.897Z,97102.38
2023-01-27T19:08:48.861Z,97097.94
2023-01-27T19:11:17.383Z,97097.94
2023-01-27T19:13:46.069Z,97096.09
2023-01-27T19:16:17.067Z,97106.38
2023-01-27T19:18:46.147Z,97110.69
2023-01-27T19:21:15.540Z,97120.84
2023-01-27T19:23:44.742Z,97120.84
2023-01-27T19:26:17.716Z,97115.00
2023-01-27T19:28:46.211Z,97119.13
2023-01-27T19:31:15.461Z,97125.50
2023-01-27T19:33:44.791Z,97117.31
2023-01-27T19:36:20.809Z,97120.09
2023-01-27T19:38:49.044Z,97126.97
2023-01-27T19:41:16.778Z,97131.41
2023-01-27T19:43:47.144Z,97132.53
2023-01-27T19:46:23.205Z,97128.84
2023-01-27T19:48:51.807Z,97139.00
2023-01-27T19:51:20.083Z,97140.16
2023-01-27T19:53:47.617Z,97148.91
2023-01-27T19:56:17.035Z,97142.25
2023-01-27T19:58:47.146Z,97148.28
2023-01-27T20:01:16.156Z,97144.09
2023-01-27T20:03:43.789Z,97151.09
2023-01-27T20:06:16.661Z,97154.38
2023-01-27T20:08:44.120Z,97153.91
2023-01-27T20:11:33.358Z,97158.34
2023-01-27T20:14:01.914Z,97156.00
2023-01-27T20:16:30.890Z,97162.25
2023-01-27T20:19:00.105Z,97162.59
2023-01-27T20:21:28.758Z,97158.50
2023-01-27T20:23:56.278Z,97161.06
2023-01-27T20:26:23.942Z,97161.78
2023-01-27T20:28:51.601Z,97157.34
2023-01-27T20:31:22.513Z,97163.41
2023-01-27T20:33:52.188Z,97166.91
2023-01-27T20:36:22.575Z,97169.81
2023-01-27T20:38:51.293Z,97170.84
2023-01-27T20:41:21.238Z,97174.31
2023-01-27T20:43:49.195Z,97175.13
2023-01-27T20:46:20.793Z,97162.41
2023-01-27T20:48:48.382Z,97162.19
2023-01-27T20:51:17.657Z,97161.25
2023-01-27T20:53:46.097Z,97153.34
2023-01-27T20:56:14.960Z,97157.22
2023-01-27T20:58:42.871Z,97162.25
2023-01-27T21:01:12.119Z,97170.19
2023-01-27T21:03:40.553Z,97171.09
2023-01-27T21:06:09.429Z,97165.25
2023-01-27T21:08:38.579Z,97168.97
2023-01-27T21:11:10.854Z,97164.88
2023-01-27T21:13:38.619Z,97161.47
2023-01-27T21:16:07.090Z,97153.88
2023-01-27T21:18:34.678Z,97158.91
2023-01-27T21:21:04.074Z,97169.19
2023-01-27T21:23:33.460Z,97167.66
2023-01-27T21:26:05.371Z,97179.06
2023-01-27T21:28:33.468Z,97179.28
2023-01-27T21:31:06.215Z,97181.13
2023-01-27T21:33:35.898Z,97182.38
2023-01-27T21:36:03.680Z,97174.88
2023-01-27T21:38:32.389Z,97179.31
2023-01-27T21:41:06.061Z,97174.97
2023-01-27T21:43:51.258Z,97176.72
2023-01-27T21:46:19.051Z,97180.22
2023-01-27T21:48:46.700Z,97176.81
2023-01-27T21:51:14.196Z,97176.00
2023-01-27T21:53:42.407Z,97172.72
2023-01-27T21:56:12.008Z,97171.06
2023-01-27T21:58:40.225Z,97170.25
2023-01-27T22:01:08.591Z,97172.63
2023-01-27T22:03:38.181Z,97170.88
2023-01-27T22:06:06.841Z,97174.16
2023-01-27T22:08:34.502Z,97174.03
2023-01-27T22:11:05.718Z,97173.75
2023-01-27T22:13:37.410Z,97181.00
2023-01-27T22:16:05.894Z,97181.53
2023-01-27T22:18:33.521Z,97171.84
2023-01-27T22:21:02.283Z,97173.28
2023-01-27T22:23:30.013Z,97168.06
2023-01-27T22:25:57.661Z,97163.25
2023-01-27T22:28:26.496Z,97170.31
2023-01-27T22:30:55.437Z,97167.03
2023-01-27T22:33:22.940Z,97170.63
2023-01-27T22:35:59.560Z,97168.16
2023-01-27T22:38:27.083Z,97173.31
2023-01-27T22:40:58.557Z,97183.47
2023-01-27T22:43:26.071Z,97176.50
2023-01-27T22:45:55.009Z,97185.84
2023-01-27T22:48:22.539Z,97177.31
2023-01-27T22:50:50.058Z,97181.72
2023-01-27T22:53:17.608Z,97177.53
2023-01-27T22:55:45.107Z,97177.44
2023-01-27T22:58:12.703Z,97183.38
2023-01-27T23:00:40.195Z,97175.88
2023-01-27T23:03:09.048Z,97180.00
2023-01-27T23:05:36.612Z,97178.25
2023-01-27T23:08:04.219Z,97186.84
2023-01-27T23:10:31.728Z,97182.34
2023-01-27T23:12:59.239Z,97184.81
2023-01-27T23:15:26.791Z,97186.66
2023-01-27T23:17:54.362Z,97176.41
2023-01-27T23:20:23.267Z,97173.69
2023-01-27T23:22:51.126Z,97176.28
2023-01-27T23:25:18.873Z,97179.88
2023-01-27T23:27:46.383Z,97173.94
2023-01-27T23:30:14.715Z,97172.16
2023-01-27T23:32:42.302Z,97166.00
2023-01-27T23:35:10.565Z,97170.00
2023-01-27T23:37:39.460Z,97170.72
2023-01-27T23:40:08.423Z,97167.34
2023-01-27T23:42:35.978Z,97161.47
2023-01-27T23:45:03.656Z,97165.91
2023-01-27T23:47:31.345Z,97167.75
2023-01-27T23:49:58.897Z,97167.75
2023-01-27T23:52:26.544Z,97166.13
2023-01-27T23:54:55.387Z,97171.25
2023-01-27T23:57:22.871Z,97161.91
2023-01-27T23:59:50.391Z,97160.28
